sensor_id;sensor_type;location;lat;lon;timestamp;temperature;humidity
35563;DHT22;21665;40.108;18.302;2024-02-16T00:01:40;7.20;99.90
35563;DHT22;21665;40.108;18.302;2024-02-16T00:04:06;7.20;99.90
35563;DHT22;21665;40.108;18.302;2024-02-16T00:06:33;7.10;99.90
35563;DHT22;21665;40.108;18.302;2024-02-16T00:09:00;7.20;99.90
35563;DHT22;21665;40.108;18.302;2024-02-16T00:11:27;7.20;99.90
35563;DHT22;21665;40.108;18.302;2024-02-16T00:13:55;7.20;99.90
35563;DHT22;21665;40.108;18.302;2024-02-16T00:16:21;7.20;99.90
35563;DHT22;21665;40.108;18.302;2024-02-16T00:18:47;7.20;99.90
35563;DHT22;21665;40.108;18.302;2024-02-16T00:21:14;7.20;99.90
35563;DHT22;21665;40.108;18.302;2024-02-16T00:23:45;7.20;99.90
35563;DHT22;21665;40.108;18.302;2024-02-16T00:26:13;7.30;99.90
35563;DHT22;21665;40.108;18.302;2024-02-16T00:28:39;7.30;99.90
35563;DHT22;21665;40.108;18.302;2024-02-16T00:31:08;7.30;99.90
35563;DHT22;21665;40.108;18.302;2024-02-16T00:33:35;7.30;99.90
35563;DHT22;21665;40.108;18.302;2024-02-16T00:36:01;7.30;99.90
35563;DHT22;21665;40.108;18.302;2024-02-16T00:38:27;7.30;99.90
35563;DHT22;21665;40.108;18.302;2024-02-16T00:40:54;7.30;99.90
35563;DHT22;21665;40.108;18.302;2024-02-16T00:43:20;7.30;99.90
35563;DHT22;21665;40.108;18.302;2024-02-16T00:45:46;7.30;99.90
35563;DHT22;21665;40.108;18.302;2024-02-16T00:48:14;7.30;99.90
35563;DHT22;21665;40.108;18.302;2024-02-16T00:50:40;7.30;99.90
35563;DHT22;21665;40.108;18.302;2024-02-16T00:53:08;7.30;99.90
35563;DHT22;21665;40.108;18.302;2024-02-16T00:55:35;7.40;99.90
35563;DHT22;21665;40.108;18.302;2024-02-16T00:58:01;7.40;99.90
35563;DHT22;21665;40.108;18.302;2024-02-16T01:00:28;7.50;99.90
35563;DHT22;21665;40.108;18.302;2024-02-16T01:02:54;7.50;99.90
35563;DHT22;21665;40.108;18.302;2024-02-16T01:05:21;7.50;99.90
35563;DHT22;21665;40.108;18.302;2024-02-16T01:07:49;7.60;99.90
35563;DHT22;21665;40.108;18.302;2024-02-16T01:10:18;7.60;99.90
35563;DHT22;21665;40.108;18.302;2024-02-16T01:12:45;7.60;99.90
35563;DHT22;21665;40.108;18.302;2024-02-16T01:15:11;7.70;99.90
35563;DHT22;21665;40.108;18.302;2024-02-16T01:17:37;7.70;99.90
35563;DHT22;21665;40.108;18.302;2024-02-16T01:20:08;7.70;99.90
35563;DHT22;21665;40.108;18.302;2024-02-16T01:22:39;7.70;99.90
35563;DHT22;21665;40.108;18.302;2024-02-16T01:25:08;7.80;99.90
35563;DHT22;21665;40.108;18.302;2024-02-16T01:27:37;7.80;99.90
35563;DHT22;21665;40.108;18.302;2024-02-16T01:30:04;7.80;99.90
35563;DHT22;21665;40.108;18.302;2024-02-16T01:32:30;7.80;99.90
35563;DHT22;21665;40.108;18.302;2024-02-16T01:34:57;7.80;99.90
35563;DHT22;21665;40.108;18.302;2024-02-16T01:37:24;7.70;99.90
35563;DHT22;21665;40.108;18.302;2024-02-16T01:39:53;7.70;99.90
35563;DHT22;21665;40.108;18.302;2024-02-16T01:42:20;7.80;99.90
35563;DHT22;21665;40.108;18.302;2024-02-16T01:44:46;7.80;99.90
35563;DHT22;21665;40.108;18.302;2024-02-16T01:47:12;7.80;99.90
35563;DHT22;21665;40.108;18.302;2024-02-16T01:49:39;7.80;99.90
35563;DHT22;21665;40.108;18.302;2024-02-16T01:52:06;7.80;99.90
35563;DHT22;21665;40.108;18.302;2024-02-16T01:54:33;7.80;99.90
35563;DHT22;21665;40.108;18.302;2024-02-16T01:57:00;7.80;99.90
35563;DHT22;21665;40.108;18.302;2024-02-16T01:59:27;7.80;99.90
35563;DHT22;21665;40.108;18.302;2024-02-16T02:01:54;7.80;99.90
35563;DHT22;21665;40.108;18.302;2024-02-16T02:04:20;7.80;99.90
35563;DHT22;21665;40.108;18.302;2024-02-16T02:06:47;7.80;99.90
35563;DHT22;21665;40.108;18.302;2024-02-16T02:09:13;7.90;99.90
35563;DHT22;21665;40.108;18.302;2024-02-16T02:11:40;7.90;99.90
35563;DHT22;21665;40.108;18.302;2024-02-16T02:14:09;7.90;99.90
35563;DHT22;21665;40.108;18.302;2024-02-16T02:16:36;7.90;99.90
35563;DHT22;21665;40.108;18.302;2024-02-16T02:19:03;7.80;99.90
35563;DHT22;21665;40.108;18.302;2024-02-16T02:21:29;7.80;99.90
35563;DHT22;21665;40.108;18.302;2024-02-16T02:23:56;7.80;99.90
35563;DHT22;21665;40.108;18.302;2024-02-16T02:26:22;7.80;99.90
35563;DHT22;21665;40.108;18.302;2024-02-16T02:28:49;7.80;99.90
35563;DHT22;21665;40.108;18.302;2024-02-16T02:31:16;7.90;99.90
35563;DHT22;21665;40.108;18.302;2024-02-16T02:33:43;7.90;99.90
35563;DHT22;21665;40.108;18.302;2024-02-16T02:36:09;7.90;99.90
35563;DHT22;21665;40.108;18.302;2024-02-16T02:38:36;8.00;99.90
35563;DHT22;21665;40.108;18.302;2024-02-16T02:41:03;8.00;99.90
35563;DHT22;21665;40.108;18.302;2024-02-16T02:43:29;8.10;99.90
35563;DHT22;21665;40.108;18.302;2024-02-16T02:45:56;8.10;99.90
35563;DHT22;21665;40.108;18.302;2024-02-16T02:48:23;8.10;99.90
35563;DHT22;21665;40.108;18.302;2024-02-16T02:50:51;8.10;99.90
35563;DHT22;21665;40.108;18.302;2024-02-16T02:53:18;8.10;99.90
35563;DHT22;21665;40.108;18.302;2024-02-16T02:55:44;8.10;99.90
35563;DHT22;21665;40.108;18.302;2024-02-16T02:58:10;8.20;99.90
35563;DHT22;21665;40.108;18.302;2024-02-16T03:00:37;8.20;99.90
35563;DHT22;21665;40.108;18.302;2024-02-16T03:03:03;8.20;99.90
35563;DHT22;21665;40.108;18.302;2024-02-16T03:05:30;8.20;99.90
35563;DHT22;21665;40.108;18.302;2024-02-16T03:07:56;8.30;99.90
35563;DHT22;21665;40.108;18.302;2024-02-16T03:10:25;8.50;99.90
35563;DHT22;21665;40.108;18.302;2024-02-16T03:12:51;8.50;99.90
35563;DHT22;21665;40.108;18.302;2024-02-16T03:15:18;8.40;99.90
35563;DHT22;21665;40.108;18.302;2024-02-16T03:17:47;8.50;99.90
35563;DHT22;21665;40.108;18.302;2024-02-16T03:20:14;8.70;99.90
35563;DHT22;21665;40.108;18.302;2024-02-16T03:22:40;8.80;99.90
35563;DHT22;21665;40.108;18.302;2024-02-16T03:25:06;8.70;99.90
35563;DHT22;21665;40.108;18.302;2024-02-16T03:27:33;8.80;99.90
35563;DHT22;21665;40.108;18.302;2024-02-16T03:30:00;8.80;99.90
35563;DHT22;21665;40.108;18.302;2024-02-16T03:32:26;8.80;99.90
35563;DHT22;21665;40.108;18.302;2024-02-16T03:34:52;8.80;99.90
35563;DHT22;21665;40.108;18.302;2024-02-16T03:37:19;8.80;99.90
35563;DHT22;21665;40.108;18.302;2024-02-16T03:39:45;8.70;99.90
35563;DHT22;21665;40.108;18.302;2024-02-16T03:42:11;8.60;99.90
35563;DHT22;21665;40.108;18.302;2024-02-16T03:44:38;8.60;99.90
35563;DHT22;21665;40.108;18.302;2024-02-16T03:47:04;8.60;99.90
35563;DHT22;21665;40.108;18.302;2024-02-16T03:49:31;8.50;99.90
35563;DHT22;21665;40.108;18.302;2024-02-16T03:51:58;8.50;99.90
35563;DHT22;21665;40.108;18.302;2024-02-16T03:54:25;8.30;99.90
35563;DHT22;21665;40.108;18.302;2024-02-16T03:56:54;8.30;99.90
35563;DHT22;21665;40.108;18.302;2024-02-16T03:59:21;8.20;99.90
35563;DHT22;21665;40.108;18.302;2024-02-16T04:01:47;8.10;99.90
35563;DHT22;21665;40.108;18.302;2024-02-16T04:04:19;8.10;99.90
35563;DHT22;21665;40.108;18.302;2024-02-16T04:06:46;8.10;99.90
35563;DHT22;21665;40.108;18.302;2024-02-16T04:09:13;8.10;99.90
35563;DHT22;21665;40.108;18.302;2024-02-16T04:11:40;8.10;99.90
35563;DHT22;21665;40.108;18.302;2024-02-16T04:14:07;8.00;99.90
35563;DHT22;21665;40.108;18.302;2024-02-16T04:16:34;8.00;99.90
35563;DHT22;21665;40.108;18.302;2024-02-16T04:19:01;8.10;99.90
35563;DHT22;21665;40.108;18.302;2024-02-16T04:21:28;8.00;99.90
35563;DHT22;21665;40.108;18.302;2024-02-16T04:23:54;8.00;99.90
35563;DHT22;21665;40.108;18.302;2024-02-16T04:26:21;8.00;99.90
35563;DHT22;21665;40.108;18.302;2024-02-16T04:28:47;8.00;99.90
35563;DHT22;21665;40.108;18.302;2024-02-16T04:31:14;8.00;99.90
35563;DHT22;21665;40.108;18.302;2024-02-16T04:33:40;8.00;99.90
35563;DHT22;21665;40.108;18.302;2024-02-16T04:36:07;8.00;99.90
35563;DHT22;21665;40.108;18.302;2024-02-16T04:38:34;8.00;99.90
35563;DHT22;21665;40.108;18.302;2024-02-16T04:41:04;7.90;99.90
35563;DHT22;21665;40.108;18.302;2024-02-16T04:43:30;7.90;99.90
35563;DHT22;21665;40.108;18.302;2024-02-16T04:45:57;7.90;99.90
35563;DHT22;21665;40.108;18.302;2024-02-16T04:48:24;7.90;99.90
35563;DHT22;21665;40.108;18.302;2024-02-16T04:50:50;7.80;99.90
35563;DHT22;21665;40.108;18.302;2024-02-16T04:53:17;7.80;99.90
35563;DHT22;21665;40.108;18.302;2024-02-16T04:55:44;7.80;99.90
35563;DHT22;21665;40.108;18.302;2024-02-16T04:58:10;7.70;99.90
35563;DHT22;21665;40.108;18.302;2024-02-16T05:00:40;7.70;99.90
35563;DHT22;21665;40.108;18.302;2024-02-16T05:03:06;7.70;99.90
35563;DHT22;21665;40.108;18.302;2024-02-16T05:05:33;7.70;99.90
35563;DHT22;21665;40.108;18.302;2024-02-16T05:08:00;7.60;99.90
35563;DHT22;21665;40.108;18.302;2024-02-16T05:10:27;7.70;99.90
35563;DHT22;21665;40.108;18.302;2024-02-16T05:12:54;7.60;99.90
35563;DHT22;21665;40.108;18.302;2024-02-16T05:15:21;7.60;99.90
35563;DHT22;21665;40.108;18.302;2024-02-16T05:17:48;7.60;99.90
35563;DHT22;21665;40.108;18.302;2024-02-16T05:20:15;7.50;99.90
35563;DHT22;21665;40.108;18.302;2024-02-16T05:22:45;7.60;99.90
35563;DHT22;21665;40.108;18.302;2024-02-16T05:25:13;7.50;99.90
35563;DHT22;21665;40.108;18.302;2024-02-16T05:27:39;7.50;99.90
35563;DHT22;21665;40.108;18.302;2024-02-16T05:30:09;7.50;99.90
35563;DHT22;21665;40.108;18.302;2024-02-16T05:32:37;7.50;99.90
35563;DHT22;21665;40.108;18.302;2024-02-16T05:35:07;7.50;99.90
35563;DHT22;21665;40.108;18.302;2024-02-16T05:37:45;7.50;99.90
35563;DHT22;21665;40.108;18.302;2024-02-16T05:40:19;7.50;99.90
35563;DHT22;21665;40.108;18.302;2024-02-16T05:42:53;7.50;99.90
35563;DHT22;21665;40.108;18.302;2024-02-16T05:45:20;7.50;99.90
35563;DHT22;21665;40.108;18.302;2024-02-16T05:47:51;7.50;99.90
35563;DHT22;21665;40.108;18.302;2024-02-16T05:50:17;7.40;99.90
35563;DHT22;21665;40.108;18.302;2024-02-16T05:52:44;7.50;99.90
35563;DHT22;21665;40.108;18.302;2024-02-16T05:55:11;7.50;99.90
35563;DHT22;21665;40.108;18.302;2024-02-16T05:57:41;7.50;99.90
35563;DHT22;21665;40.108;18.302;2024-02-16T06:00:08;7.50;99.90
35563;DHT22;21665;40.108;18.302;2024-02-16T06:02:35;7.60;99.90
35563;DHT22;21665;40.108;18.302;2024-02-16T06:05:03;7.60;99.90
35563;DHT22;21665;40.108;18.302;2024-02-16T06:07:30;7.70;99.90
35563;DHT22;21665;40.108;18.302;2024-02-16T06:09:59;7.80;99.90
35563;DHT22;21665;40.108;18.302;2024-02-16T06:12:28;7.80;99.90
35563;DHT22;21665;40.108;18.302;2024-02-16T06:14:55;7.90;99.90
35563;DHT22;21665;40.108;18.302;2024-02-16T06:17:23;7.90;99.90
35563;DHT22;21665;40.108;18.302;2024-02-16T06:19:50;7.90;99.90
35563;DHT22;21665;40.108;18.302;2024-02-16T06:22:20;7.90;99.90
35563;DHT22;21665;40.108;18.302;2024-02-16T06:24:47;8.00;99.90
35563;DHT22;21665;40.108;18.302;2024-02-16T06:27:14;8.00;99.90
35563;DHT22;21665;40.108;18.302;2024-02-16T06:29:40;8.00;99.90
35563;DHT22;21665;40.108;18.302;2024-02-16T06:32:07;8.10;99.90
35563;DHT22;21665;40.108;18.302;2024-02-16T06:34:34;8.20;99.90
35563;DHT22;21665;40.108;18.302;2024-02-16T06:37:02;8.40;99.90
35563;DHT22;21665;40.108;18.302;2024-02-16T06:39:29;8.50;99.90
35563;DHT22;21665;40.108;18.302;2024-02-16T06:41:57;9.00;99.90
35563;DHT22;21665;40.108;18.302;2024-02-16T06:44:23;9.40;99.90
35563;DHT22;21665;40.108;18.302;2024-02-16T06:46:50;9.90;99.90
35563;DHT22;21665;40.108;18.302;2024-02-16T06:49:16;10.10;99.90
35563;DHT22;21665;40.108;18.302;2024-02-16T06:51:43;10.20;99.90
35563;DHT22;21665;40.108;18.302;2024-02-16T06:54:11;10.40;99.90
35563;DHT22;21665;40.108;18.302;2024-02-16T06:56:38;10.60;99.90
35563;DHT22;21665;40.108;18.302;2024-02-16T06:59:07;10.90;99.90
35563;DHT22;21665;40.108;18.302;2024-02-16T07:01:36;11.10;99.90
35563;DHT22;21665;40.108;18.302;2024-02-16T07:04:03;11.50;99.90
35563;DHT22;21665;40.108;18.302;2024-02-16T07:06:29;11.70;99.90
35563;DHT22;21665;40.108;18.302;2024-02-16T07:08:56;11.90;99.90
35563;DHT22;21665;40.108;18.302;2024-02-16T07:11:25;12.30;99.90
35563;DHT22;21665;40.108;18.302;2024-02-16T07:13:52;12.40;99.90
35563;DHT22;21665;40.108;18.302;2024-02-16T07:16:18;12.50;99.90
35563;DHT22;21665;40.108;18.302;2024-02-16T07:18:45;12.70;99.90
35563;DHT22;21665;40.108;18.302;2024-02-16T07:21:12;12.90;99.90
35563;DHT22;21665;40.108;18.302;2024-02-16T07:23:39;13.00;99.90
35563;DHT22;21665;40.108;18.302;2024-02-16T07:26:06;13.10;99.90
35563;DHT22;21665;40.108;18.302;2024-02-16T07:28:34;13.50;99.90
35563;DHT22;21665;40.108;18.302;2024-02-16T07:31:01;13.80;99.90
35563;DHT22;21665;40.108;18.302;2024-02-16T07:33:29;14.10;99.90
35563;DHT22;21665;40.108;18.302;2024-02-16T07:35:55;14.20;99.90
35563;DHT22;21665;40.108;18.302;2024-02-16T07:38:26;14.30;99.90
35563;DHT22;21665;40.108;18.302;2024-02-16T07:40:56;14.40;99.90
35563;DHT22;21665;40.108;18.302;2024-02-16T07:43:24;14.60;99.90
35563;DHT22;21665;40.108;18.302;2024-02-16T07:45:54;14.70;99.90
35563;DHT22;21665;40.108;18.302;2024-02-16T07:48:23;14.70;99.90
35563;DHT22;21665;40.108;18.302;2024-02-16T07:50:50;15.00;99.90
35563;DHT22;21665;40.108;18.302;2024-02-16T07:53:16;15.20;99.90
35563;DHT22;21665;40.108;18.302;2024-02-16T07:55:43;15.20;99.90
35563;DHT22;21665;40.108;18.302;2024-02-16T07:58:10;15.20;99.90
35563;DHT22;21665;40.108;18.302;2024-02-16T08:00:38;15.00;99.90
35563;DHT22;21665;40.108;18.302;2024-02-16T08:03:06;15.00;99.90
35563;DHT22;21665;40.108;18.302;2024-02-16T08:05:33;14.80;99.90
35563;DHT22;21665;40.108;18.302;2024-02-16T08:07:59;14.70;99.90
35563;DHT22;21665;40.108;18.302;2024-02-16T08:10:26;14.70;99.90
35563;DHT22;21665;40.108;18.302;2024-02-16T08:12:54;14.60;99.90
35563;DHT22;21665;40.108;18.302;2024-02-16T08:15:22;14.60;99.90
35563;DHT22;21665;40.108;18.302;2024-02-16T08:17:50;14.50;99.90
35563;DHT22;21665;40.108;18.302;2024-02-16T08:20:17;14.60;99.90
35563;DHT22;21665;40.108;18.302;2024-02-16T08:22:44;14.70;99.90
35563;DHT22;21665;40.108;18.302;2024-02-16T08:25:12;14.70;99.90
35563;DHT22;21665;40.108;18.302;2024-02-16T08:27:41;14.60;99.90
35563;DHT22;21665;40.108;18.302;2024-02-16T08:30:08;14.70;99.90
35563;DHT22;21665;40.108;18.302;2024-02-16T08:32:37;14.90;99.90
35563;DHT22;21665;40.108;18.302;2024-02-16T08:35:07;15.00;99.90
35563;DHT22;21665;40.108;18.302;2024-02-16T08:37:34;15.20;99.90
35563;DHT22;21665;40.108;18.302;2024-02-16T08:40:02;15.40;99.90
35563;DHT22;21665;40.108;18.302;2024-02-16T08:42:30;15.60;99.90
35563;DHT22;21665;40.108;18.302;2024-02-16T08:44:57;15.30;99.90
35563;DHT22;21665;40.108;18.302;2024-02-16T08:47:26;15.20;99.90
35563;DHT22;21665;40.108;18.302;2024-02-16T08:49:53;15.10;99.90
35563;DHT22;21665;40.108;18.302;2024-02-16T08:52:20;14.80;99.90
35563;DHT22;21665;40.108;18.302;2024-02-16T08:54:46;14.80;99.90
35563;DHT22;21665;40.108;18.302;2024-02-16T08:57:15;14.70;99.90
35563;DHT22;21665;40.108;18.302;2024-02-16T08:59:48;14.90;99.90
35563;DHT22;21665;40.108;18.302;2024-02-16T09:02:24;14.80;99.90
35563;DHT22;21665;40.108;18.302;2024-02-16T09:04:58;14.80;99.90
35563;DHT22;21665;40.108;18.302;2024-02-16T09:07:29;14.80;99.90
35563;DHT22;21665;40.108;18.302;2024-02-16T09:09:56;14.80;99.90
35563;DHT22;21665;40.108;18.302;2024-02-16T09:12:23;14.80;99.90
35563;DHT22;21665;40.108;18.302;2024-02-16T09:14:49;14.90;99.90
35563;DHT22;21665;40.108;18.302;2024-02-16T09:17:16;15.10;99.90
35563;DHT22;21665;40.108;18.302;2024-02-16T09:19:45;15.30;99.90
35563;DHT22;21665;40.108;18.302;2024-02-16T09:22:11;15.40;99.90
35563;DHT22;21665;40.108;18.302;2024-02-16T09:24:38;15.60;99.90
35563;DHT22;21665;40.108;18.302;2024-02-16T09:27:05;15.60;99.90
35563;DHT22;21665;40.108;18.302;2024-02-16T09:29:32;15.70;99.90
35563;DHT22;21665;40.108;18.302;2024-02-16T09:32:02;15.60;99.90
35563;DHT22;21665;40.108;18.302;2024-02-16T09:34:29;15.70;99.90
35563;DHT22;21665;40.108;18.302;2024-02-16T09:37:23;15.80;99.90
35563;DHT22;21665;40.108;18.302;2024-02-16T09:39:50;16.00;99.90
35563;DHT22;21665;40.108;18.302;2024-02-16T09:42:17;16.20;99.90
35563;DHT22;21665;40.108;18.302;2024-02-16T09:44:45;16.30;99.90
35563;DHT22;21665;40.108;18.302;2024-02-16T09:47:11;16.20;99.90
35563;DHT22;21665;40.108;18.302;2024-02-16T09:49:40;16.10;99.90
35563;DHT22;21665;40.108;18.302;2024-02-16T09:52:12;16.00;99.90
35563;DHT22;21665;40.108;18.302;2024-02-16T09:54:40;16.00;99.90
35563;DHT22;21665;40.108;18.302;2024-02-16T09:57:07;15.90;99.90
35563;DHT22;21665;40.108;18.302;2024-02-16T09:59:34;16.00;99.90
35563;DHT22;21665;40.108;18.302;2024-02-16T10:02:02;16.00;99.90
35563;DHT22;21665;40.108;18.302;2024-02-16T10:04:29;16.00;99.90
35563;DHT22;21665;40.108;18.302;2024-02-16T10:06:56;16.30;99.90
35563;DHT22;21665;40.108;18.302;2024-02-16T10:09:27;16.50;99.90
35563;DHT22;21665;40.108;18.302;2024-02-16T10:11:58;16.40;99.90
35563;DHT22;21665;40.108;18.302;2024-02-16T10:14:26;16.20;99.90
35563;DHT22;21665;40.108;18.302;2024-02-16T10:17:01;16.40;99.90
35563;DHT22;21665;40.108;18.302;2024-02-16T10:19:29;16.40;99.90
35563;DHT22;21665;40.108;18.302;2024-02-16T10:22:09;16.40;99.90
35563;DHT22;21665;40.108;18.302;2024-02-16T10:24:36;16.40;99.90
35563;DHT22;21665;40.108;18.302;2024-02-16T10:27:17;16.50;99.90
35563;DHT22;21665;40.108;18.302;2024-02-16T10:29:45;16.40;99.90
35563;DHT22;21665;40.108;18.302;2024-02-16T10:32:16;16.60;99.90
35563;DHT22;21665;40.108;18.302;2024-02-16T10:34:43;16.60;99.90
35563;DHT22;21665;40.108;18.302;2024-02-16T10:37:12;16.50;99.90
35563;DHT22;21665;40.108;18.302;2024-02-16T10:39:40;16.60;99.90
35563;DHT22;21665;40.108;18.302;2024-02-16T10:42:09;16.50;99.90
35563;DHT22;21665;40.108;18.302;2024-02-16T10:44:37;16.50;99.90
35563;DHT22;21665;40.108;18.302;2024-02-16T10:47:05;16.40;99.90
35563;DHT22;21665;40.108;18.302;2024-02-16T10:49:31;16.60;99.90
35563;DHT22;21665;40.108;18.302;2024-02-16T10:51:59;16.80;99.90
35563;DHT22;21665;40.108;18.302;2024-02-16T10:54:30;16.80;99.90
35563;DHT22;21665;40.108;18.302;2024-02-16T10:56:58;17.10;99.90
35563;DHT22;21665;40.108;18.302;2024-02-16T10:59:25;16.90;99.90
35563;DHT22;21665;40.108;18.302;2024-02-16T11:02:01;16.90;99.90
35563;DHT22;21665;40.108;18.302;2024-02-16T11:04:37;16.90;99.90
35563;DHT22;21665;40.108;18.302;2024-02-16T11:07:17;17.00;99.90
35563;DHT22;21665;40.108;18.302;2024-02-16T11:09:46;17.00;99.90
35563;DHT22;21665;40.108;18.302;2024-02-16T11:12:13;16.80;99.90
35563;DHT22;21665;40.108;18.302;2024-02-16T11:14:50;16.90;99.90
35563;DHT22;21665;40.108;18.302;2024-02-16T11:17:22;16.70;99.90
35563;DHT22;21665;40.108;18.302;2024-02-16T11:19:49;16.80;99.90
35563;DHT22;21665;40.108;18.302;2024-02-16T11:22:18;16.80;99.90
35563;DHT22;21665;40.108;18.302;2024-02-16T11:24:49;16.90;99.90
35563;DHT22;21665;40.108;18.302;2024-02-16T11:27:16;17.20;99.90
35563;DHT22;21665;40.108;18.302;2024-02-16T11:29:48;17.20;99.90
35563;DHT22;21665;40.108;18.302;2024-02-16T11:32:15;17.30;99.90
35563;DHT22;21665;40.108;18.302;2024-02-16T11:34:41;17.10;99.90
35563;DHT22;21665;40.108;18.302;2024-02-16T11:37:08;16.90;99.90
35563;DHT22;21665;40.108;18.302;2024-02-16T11:39:35;16.90;99.90
35563;DHT22;21665;40.108;18.302;2024-02-16T11:42:11;17.00;99.90
35563;DHT22;21665;40.108;18.302;2024-02-16T11:44:40;17.20;99.90
35563;DHT22;21665;40.108;18.302;2024-02-16T11:47:20;17.10;99.90
35563;DHT22;21665;40.108;18.302;2024-02-16T11:50:08;17.20;99.90
35563;DHT22;21665;40.108;18.302;2024-02-16T11:52:39;17.30;99.90
35563;DHT22;21665;40.108;18.302;2024-02-16T11:55:10;17.40;99.30
35563;DHT22;21665;40.108;18.302;2024-02-16T11:57:38;17.40;99.90
35563;DHT22;21665;40.108;18.302;2024-02-16T12:00:05;17.40;99.90
35563;DHT22;21665;40.108;18.302;2024-02-16T12:02:37;17.30;99.90
35563;DHT22;21665;40.108;18.302;2024-02-16T12:05:04;17.50;99.90
35563;DHT22;21665;40.108;18.302;2024-02-16T12:07:37;17.50;99.90
35563;DHT22;21665;40.108;18.302;2024-02-16T12:10:06;17.50;99.90
35563;DHT22;21665;40.108;18.302;2024-02-16T12:12:33;17.50;99.90
35563;DHT22;21665;40.108;18.302;2024-02-16T12:15:01;17.40;99.90
35563;DHT22;21665;40.108;18.302;2024-02-16T12:17:30;17.40;99.90
35563;DHT22;21665;40.108;18.302;2024-02-16T12:19:56;17.50;99.90
35563;DHT22;21665;40.108;18.302;2024-02-16T12:22:23;17.60;99.90
35563;DHT22;21665;40.108;18.302;2024-02-16T12:24:50;17.60;99.90
35563;DHT22;21665;40.108;18.302;2024-02-16T12:27:18;17.70;99.90
35563;DHT22;21665;40.108;18.302;2024-02-16T12:29:44;17.70;99.90
35563;DHT22;21665;40.108;18.302;2024-02-16T12:32:11;17.60;99.90
35563;DHT22;21665;40.108;18.302;2024-02-16T12:34:38;17.50;99.90
35563;DHT22;21665;40.108;18.302;2024-02-16T12:37:07;17.60;99.90
35563;DHT22;21665;40.108;18.302;2024-02-16T12:39:38;17.50;99.90
35563;DHT22;21665;40.108;18.302;2024-02-16T12:42:06;17.60;99.90
35563;DHT22;21665;40.108;18.302;2024-02-16T12:44:32;17.70;99.90
35563;DHT22;21665;40.108;18.302;2024-02-16T12:46:59;17.50;99.90
35563;DHT22;21665;40.108;18.302;2024-02-16T12:49:25;17.40;99.90
35563;DHT22;21665;40.108;18.302;2024-02-16T12:51:52;17.40;99.90
35563;DHT22;21665;40.108;18.302;2024-02-16T12:54:20;17.50;99.90
35563;DHT22;21665;40.108;18.302;2024-02-16T12:56:49;17.40;99.90
35563;DHT22;21665;40.108;18.302;2024-02-16T12:59:16;17.20;99.90
35563;DHT22;21665;40.108;18.302;2024-02-16T13:01:43;17.20;99.90
35563;DHT22;21665;40.108;18.302;2024-02-16T13:04:10;17.20;99.90
35563;DHT22;21665;40.108;18.302;2024-02-16T13:06:37;17.20;99.90
35563;DHT22;21665;40.108;18.302;2024-02-16T13:09:04;17.10;99.90
35563;DHT22;21665;40.108;18.302;2024-02-16T13:11:32;17.20;99.90
35563;DHT22;21665;40.108;18.302;2024-02-16T13:14:00;17.30;99.90
35563;DHT22;21665;40.108;18.302;2024-02-16T13:16:26;17.20;99.90
35563;DHT22;21665;40.108;18.302;2024-02-16T13:18:52;17.30;99.90
35563;DHT22;21665;40.108;18.302;2024-02-16T13:21:20;17.30;99.90
35563;DHT22;21665;40.108;18.302;2024-02-16T13:23:46;17.30;99.90
35563;DHT22;21665;40.108;18.302;2024-02-16T13:26:13;17.30;99.90
35563;DHT22;21665;40.108;18.302;2024-02-16T13:28:39;17.20;99.90
35563;DHT22;21665;40.108;18.302;2024-02-16T13:31:07;17.40;99.90
35563;DHT22;21665;40.108;18.302;2024-02-16T13:33:37;17.50;99.90
35563;DHT22;21665;40.108;18.302;2024-02-16T13:36:04;17.70;99.90
35563;DHT22;21665;40.108;18.302;2024-02-16T13:38:32;17.50;99.90
35563;DHT22;21665;40.108;18.302;2024-02-16T13:40:59;17.40;99.90
35563;DHT22;21665;40.108;18.302;2024-02-16T13:43:26;17.40;99.90
35563;DHT22;21665;40.108;18.302;2024-02-16T13:45:55;17.40;99.90
35563;DHT22;21665;40.108;18.302;2024-02-16T13:48:25;17.40;99.90
35563;DHT22;21665;40.108;18.302;2024-02-16T13:50:54;17.10;99.90
35563;DHT22;21665;40.108;18.302;2024-02-16T13:53:21;17.10;99.90
35563;DHT22;21665;40.108;18.302;2024-02-16T13:55:49;17.20;99.90
35563;DHT22;21665;40.108;18.302;2024-02-16T13:58:16;17.30;99.90
35563;DHT22;21665;40.108;18.302;2024-02-16T14:00:42;17.20;99.90
35563;DHT22;21665;40.108;18.302;2024-02-16T14:03:10;17.10;99.90
35563;DHT22;21665;40.108;18.302;2024-02-16T14:05:39;16.90;99.90
35563;DHT22;21665;40.108;18.302;2024-02-16T14:08:06;16.90;99.90
35563;DHT22;21665;40.108;18.302;2024-02-16T14:10:47;16.90;99.90
35563;DHT22;21665;40.108;18.302;2024-02-16T14:13:40;17.00;99.90
35563;DHT22;21665;40.108;18.302;2024-02-16T14:16:07;16.90;99.90
35563;DHT22;21665;40.108;18.302;2024-02-16T14:18:37;16.90;99.90
35563;DHT22;21665;40.108;18.302;2024-02-16T14:21:06;16.70;99.90
35563;DHT22;21665;40.108;18.302;2024-02-16T14:23:44;16.50;99.90
35563;DHT22;21665;40.108;18.302;2024-02-16T14:26:11;16.40;99.90
35563;DHT22;21665;40.108;18.302;2024-02-16T14:28:39;16.50;99.90
35563;DHT22;21665;40.108;18.302;2024-02-16T14:31:06;16.40;99.90
35563;DHT22;21665;40.108;18.302;2024-02-16T14:33:36;16.50;99.90
35563;DHT22;21665;40.108;18.302;2024-02-16T14:36:03;16.40;99.90
35563;DHT22;21665;40.108;18.302;2024-02-16T14:38:30;16.40;99.90
35563;DHT22;21665;40.108;18.302;2024-02-16T14:40:59;16.30;99.90
35563;DHT22;21665;40.108;18.302;2024-02-16T14:43:30;16.30;99.90
35563;DHT22;21665;40.108;18.302;2024-02-16T16:44:53;12.00;99.90
35563;DHT22;21665;40.108;18.302;2024-02-16T16:47:20;11.80;99.90
35563;DHT22;21665;40.108;18.302;2024-02-16T16:49:46;11.70;99.90
35563;DHT22;21665;40.108;18.302;2024-02-16T16:52:14;11.60;99.90
35563;DHT22;21665;40.108;18.302;2024-02-16T16:54:42;11.50;99.90
35563;DHT22;21665;40.108;18.302;2024-02-16T16:57:08;11.50;99.90
35563;DHT22;21665;40.108;18.302;2024-02-16T16:59:38;11.40;99.90
35563;DHT22;21665;40.108;18.302;2024-02-16T17:02:05;11.30;99.90
35563;DHT22;21665;40.108;18.302;2024-02-16T17:04:32;11.20;99.90
35563;DHT22;21665;40.108;18.302;2024-02-16T17:06:59;11.10;99.90
35563;DHT22;21665;40.108;18.302;2024-02-16T17:09:26;11.00;99.90
35563;DHT22;21665;40.108;18.302;2024-02-16T17:11:53;11.00;99.90
35563;DHT22;21665;40.108;18.302;2024-02-16T17:14:22;10.90;99.90
35563;DHT22;21665;40.108;18.302;2024-02-16T17:16:51;10.90;99.90
35563;DHT22;21665;40.108;18.302;2024-02-16T17:19:18;10.80;99.90
35563;DHT22;21665;40.108;18.302;2024-02-16T17:21:44;10.60;99.90
35563;DHT22;21665;40.108;18.302;2024-02-16T17:24:14;10.50;99.90
35563;DHT22;21665;40.108;18.302;2024-02-16T17:26:40;10.40;99.90